Time;durP1;ratioP1;P1;durP2;ratioP2;P2;SDS_P1;SDS_P2;PMS_P1;PMS_P2;Temp;Humidity;BMP_temperature;BMP_pressure;BME280_temperature;BME280_humidity;BME280_pressure;Samples;Min_cycle;Max_cycle;Signal;HPM_P1;HPM_P2
2022/07/01 00:01:29;;;;;;;;;;;;;;;;;;5126516;27;1148;-78
2022/07/01 00:03:55;;;;;;;;;;;;;;;;;;5109726;27;1183;-79
2022/07/01 00:06:20;;;;;;;;;;;;;;;;;;5124559;27;1327;-78
2022/07/01 00:08:47;;;;;;;;;;;;;;;;;;5116044;27;1353;-78
2022/07/01 00:11:12;;;;;;;;;;;;;;;;;;5110088;27;1936;-79
2022/07/01 00:13:38;;;;;;;;;;;;;;;;;;5147219;27;1132;-79
2022/07/01 00:16:03;;;;;;;;;;;;;;;;;;5132576;27;1349;-80
2022/07/01 00:18:29;;;;;;;;;;;;;;;;;;5112842;27;1292;-80
2022/07/01 00:20:54;;;;;;;;;;;;;;;;;;5137851;27;1123;-80
2022/07/01 00:23:19;;;;;;;;;;;;;;;;;;5126534;27;1186;-80
2022/07/01 00:25:45;;;;;;;;;;;;;;;;;;5133439;27;1190;-80
2022/07/01 00:28:10;;;;;;;;;;;;;;;;;;5129357;27;1363;-81
2022/07/01 00:30:36;;;;;;;;;;;;;;;;;;5133324;27;1969;-80
2022/07/01 00:33:02;;;;;;;;;;;;;;;;;;5110316;27;1197;-80
2022/07/01 00:35:27;;;;;;;;;;;;;;;;;;5132747;27;1406;-80
2022/07/01 00:37:52;;;;;;;;;;;;;;;;;;5095512;27;1254;-80
2022/07/01 00:40:18;;;;;;;;;;;;;;;;;;5116456;27;1195;-80
2022/07/01 00:42:43;;;;;;;;;;;;;;;;;;5135359;27;1221;-80
2022/07/01 00:45:10;;;;;;;;;;;;;;;;;;5095353;27;1252;-80
2022/07/01 00:47:36;;;;;;;;;;;;;;;;;;5138853;27;1217;-80
2022/07/01 00:50:06;;;;;;;;;;;;;;;;;;5112525;27;1360;-79
2022/07/01 00:52:32;;;;;;;;;;;;;;;;;;5134627;27;1905;-80
2022/07/01 00:54:57;;;;;;;;;;;;;;;;;;5131555;27;1119;-80
2022/07/01 00:57:23;;;;;;;;;;;;;;;;;;5109276;27;1122;-80
2022/07/01 00:59:48;;;;;;;;;;;;;;;;;;5112231;27;1132;-80
2022/07/01 01:02:13;;;;;;;;;;;;;;;;;;5101130;27;1184;-80
2022/07/01 01:04:38;;;;;;;;;;;;;;;;;;5129882;27;1268;-81
2022/07/01 01:07:13;;;;;;;;;;;;;;;;;;5104652;27;1190;-80
2022/07/01 01:09:38;;;;;;;;;;;;;;;;;;5130511;27;1186;-80
2022/07/01 01:12:11;;;;;;;;;;;;;;;;;;5111507;27;1889;-80
2022/07/01 01:14:43;;;;;;;;;;;;;;;;;;5120227;27;1242;-80
2022/07/01 01:17:09;;;;;;;;;;;;;;;;;;5109029;27;1229;-80
2022/07/01 01:19:34;;;;;;;;;;;;;;;;;;5125096;27;1321;-80
2022/07/01 01:21:59;;;;;;;;;;;;;;;;;;5116785;27;1198;-80
2022/07/01 01:24:25;;;;;;;;;;;;;;;;;;5147107;27;1233;-80
2022/07/01 01:26:50;;;;;;;;;;;;;;;;;;5129276;27;1135;-80
2022/07/01 01:29:16;;;;;;;;;;;;;;;;;;5098727;27;1156;-80
2022/07/01 01:31:41;;;;;;;;;;;;;;;;;;5094898;27;1926;-80
2022/07/01 01:34:11;;;;;;;;;;;;;;;;;;5090230;27;1147;-80
2022/07/01 01:36:55;;;;;;;;;;;;;;;;;;5109902;27;1246;-80
2022/07/01 01:39:20;;;;;;;;;;;;;;;;;;5106283;27;1237;-80
2022/07/01 01:41:46;;;;;;;;;;;;;;;;;;5148852;27;1190;-79
2022/07/01 01:44:12;;;;;;;;;;;;;;;;;;5147056;27;1139;-80
2022/07/01 01:46:38;;;;;;;;;;;;;;;;;;5114156;27;1233;-80
2022/07/01 01:49:04;;;;;;;;;;;;;;;;;;5121400;27;1194;-80
2022/07/01 01:51:29;;;;;;;;;;;;;;;;;;5148064;27;1917;-80
2022/07/01 01:53:55;;;;;;;;;;;;;;;;;;5118478;27;1146;-80
2022/07/01 01:56:20;;;;;;;;;;;;;;;;;;5109015;27;1171;-80
2022/07/01 01:58:46;;;;;;;;;;;;;;;;;;5126419;27;1282;-80
2022/07/01 02:01:15;;;;;;;;;;;;;;;;;;5148281;27;1163;-80
2022/07/01 02:03:41;;;;;;;;;;;;;;;;;;5106474;27;1242;-78
2022/07/01 02:06:08;;;;;;;;;;;;;;;;;;5112885;27;1345;-78
2022/07/01 02:08:33;;;;;;;;;;;;;;;;;;5119567;27;1163;-78
2022/07/01 02:10:58;;;;;;;;;;;;;;;;;;5113550;27;1964;-78
2022/07/01 02:13:24;;;;;;;;;;;;;;;;;;5106689;27;1368;-78
2022/07/01 02:15:49;;;;;;;;;;;;;;;;;;5114752;27;1202;-79
2022/07/01 02:18:15;;;;;;;;;;;;;;;;;;5106157;27;1287;-78
2022/07/01 02:20:41;;;;;;;;;;;;;;;;;;5112712;27;1285;-79
2022/07/01 02:23:06;;;;;;;;;;;;;;;;;;5116004;27;1317;-78
2022/07/01 02:25:31;;;;;;;;;;;;;;;;;;5126339;27;1335;-78
2022/07/01 02:27:58;;;;;;;;;;;;;;;;;;5128114;27;1159;-77
2022/07/01 02:30:23;;;;;;;;;;;;;;;;;;5109768;27;1259;-78
2022/07/01 02:32:48;;;;;;;;;;;;;;;;;;5125011;27;1886;-78
2022/07/01 02:35:14;;;;;;;;;;;;;;;;;;5104964;27;1140;-78
2022/07/01 02:37:39;;;;;;;;;;;;;;;;;;5103417;27;1293;-78
2022/07/01 02:40:05;;;;;;;;;;;;;;;;;;5141718;27;1143;-78
2022/07/01 02:42:34;;;;;;;;;;;;;;;;;;5128097;27;1278;-78
2022/07/01 02:45:00;;;;;;;;;;;;;;;;;;5112959;27;1193;-78
2022/07/01 02:47:39;;;;;;;;;;;;;;;;;;5101201;27;1191;-78
2022/07/01 02:50:06;;;;;;;;;;;;;;;;;;5112600;27;1273;-78
2022/07/01 02:52:34;;;;;;;;;;;;;;;;;;5104758;27;1906;-77
2022/07/01 02:54:59;;;;;;;;;;;;;;;;;;5130230;27;1391;-78
2022/07/01 02:57:24;;;;;;;;;;;;;;;;;;5128032;27;1194;-78
2022/07/01 02:59:50;;;;;;;;;;;;;;;;;;5110700;27;1293;-79
2022/07/01 03:02:19;;;;;;;;;;;;;;;;;;5102501;27;1191;-79
2022/07/01 03:04:45;;;;;;;;;;;;;;;;;;5127113;27;1234;-79
2022/07/01 03:07:11;;;;;;;;;;;;;;;;;;5108434;27;1258;-78
2022/07/01 03:09:36;;;;;;;;;;;;;;;;;;5113382;27;1024;-78
2022/07/01 03:12:24;;;;;;;;;;;;;;;;;;5128996;27;1881;-78
2022/07/01 03:14:47;;;;;;;;;;;;;;;;;;5118944;27;1102;-79
2022/07/01 03:17:12;;;;;;;;;;;;;;;;;;5096078;27;1302;-78
2022/07/01 03:19:37;;;;;;;;;;;;;;;;;;5109338;27;1181;-78
2022/07/01 03:22:03;;;;;;;;;;;;;;;;;;5126026;27;1291;-79
2022/07/01 03:24:28;;;;;;;;;;;;;;;;;;5120604;27;1198;-78
2022/07/01 03:26:53;;;;;;;;;;;;;;;;;;5108893;27;1226;-78
2022/07/01 03:29:21;;;;;;;;;;;;;;;;;;5090497;27;1246;-78
2022/07/01 03:31:47;;;;;;;;;;;;;;;;;;5124663;27;1891;-79
2022/07/01 03:34:12;;;;;;;;;;;;;;;;;;5130842;27;1202;-78
2022/07/01 03:36:46;;;;;;;;;;;;;;;;;;5109865;27;1024;-79
2022/07/01 03:39:12;;;;;;;;;;;;;;;;;;5099612;27;1231;-78
2022/07/01 03:41:38;;;;;;;;;;;;;;;;;;5089728;27;1290;-78
2022/07/01 03:44:05;;;;;;;;;;;;;;;;;;5126310;27;1306;-78
2022/07/01 03:46:31;;;;;;;;;;;;;;;;;;5125289;27;1233;-78
2022/07/01 03:48:57;;;;;;;;;;;;;;;;;;5114641;27;1213;-78
2022/07/01 03:51:23;;;;;;;;;;;;;;;;;;5107692;27;1980;-78
2022/07/01 03:56:32;;;;;;;;;;;;;;;;;;5126430;27;1034;-78
2022/07/01 03:58:57;;;;;;;;;;;;;;;;;;5106655;27;1214;-78
2022/07/01 04:01:26;;;;;;;;;;;;;;;;;;5092688;27;1097;-78
2022/07/01 04:03:51;;;;;;;;;;;;;;;;;;5113538;27;1302;-79
2022/07/01 04:06:16;;;;;;;;;;;;;;;;;;5112651;27;1335;-78
2022/07/01 04:08:42;;;;;;;;;;;;;;;;;;5087715;27;1406;-77
2022/07/01 04:11:08;;;;;;;;;;;;;;;;;;5127296;27;1965;-79
2022/07/01 04:13:40;;;;;;;;;;;;;;;;;;5114355;27;1220;-78
2022/07/01 04:16:05;;;;;;;;;;;;;;;;;;5129812;27;1335;-79
2022/07/01 04:18:31;;;;;;;;;;;;;;;;;;5123082;27;1187;-78
2022/07/01 04:23:41;;;;;;;;;;;;;;;;;;5140501;27;1077;-77
2022/07/01 04:26:06;;;;;;;;;;;;;;;;;;5104260;27;1123;-77
2022/07/01 04:28:31;;;;;;;;;;;;;;;;;;5110386;27;1163;-77
2022/07/01 04:30:57;;;;;;;;;;;;;;;;;;5108141;27;1893;-78
2022/07/01 04:33:27;;;;;;;;;;;;;;;;;;5116307;27;1175;-78
2022/07/01 04:35:52;;;;;;;;;;;;;;;;;;5091943;27;1362;-78
2022/07/01 04:38:17;;;;;;;;;;;;;;;;;;5118587;27;1175;-79
2022/07/01 04:41:58;;;;;;;;;;;;;;;;;;5112752;27;1229;-79
2022/07/01 04:43:28;;;;;;;;;;;;;;;;;;5127292;27;1031;-77
2022/07/01 04:45:53;;;;;;;;;;;;;;;;;;5111121;27;1257;-76
2022/07/01 04:48:19;;;;;;;;;;;;;;;;;;5142828;27;1154;-81
2022/07/01 04:50:44;;;;;;;;;;;;;;;;;;5127195;27;1965;-89
2022/07/01 04:53:09;;;;;;;;;;;;;;;;;;5109208;27;1243;-87
2022/07/01 04:55:34;;;;;;;;;;;;;;;;;;5125901;27;1251;-80
2022/07/01 04:58:00;;;;;;;;;;;;;;;;;;5143379;27;1118;-83
2022/07/01 05:00:31;;;;;;;;;;;;;;;;;;5107897;27;1290;-81
2022/07/01 05:02:56;;;;;;;;;;;;;;;;;;5106257;27;1231;-82
2022/07/01 05:05:22;;;;;;;;;;;;;;;;;;5134790;27;1205;-81
2022/07/01 05:07:47;;;;;;;;;;;;;;;;;;5111441;27;1234;-80
2022/07/01 05:10:12;;;;;;;;;;;;;;;;;;5098072;27;1250;-80
2022/07/01 05:12:38;;;;;;;;;;;;;;;;;;5110224;27;1893;-80
2022/07/01 05:15:03;;;;;;;;;;;;;;;;;;5135907;27;1096;-80
2022/07/01 05:22:59;;;;;;;;;;;;;;;;;;5130676;27;1078;-81
2022/07/01 05:25:24;;;;;;;;;;;;;;;;;;5114562;27;1234;-82
2022/07/01 05:27:49;;;;;;;;;;;;;;;;;;5110927;27;1340;-83
2022/07/01 05:30:14;;;;;;;;;;;;;;;;;;5106837;27;1218;-78
2022/07/01 05:32:40;;;;;;;;;;;;;;;;;;5135841;27;1890;-79
2022/07/01 05:35:05;;;;;;;;;;;;;;;;;;5115171;27;1368;-79
2022/07/01 05:37:41;;;;;;;;;;;;;;;;;;5127424;27;1299;-79
2022/07/01 05:40:06;;;;;;;;;;;;;;;;;;5117167;27;1258;-79
2022/07/01 05:42:35;;;;;;;;;;;;;;;;;;5113947;27;1436;-78
2022/07/01 05:45:00;;;;;;;;;;;;;;;;;;5114962;27;1428;-79
2022/07/01 05:47:25;;;;;;;;;;;;;;;;;;5149280;27;1174;-79
2022/07/01 05:49:51;;;;;;;;;;;;;;;;;;5113755;27;1199;-79
2022/07/01 05:52:16;;;;;;;;;;;;;;;;;;5115167;27;1985;-79
2022/07/01 05:54:41;;;;;;;;;;;;;;;;;;5110879;27;1078;-79
2022/07/01 05:57:07;;;;;;;;;;;;;;;;;;5111496;27;1151;-80
2022/07/01 05:59:36;;;;;;;;;;;;;;;;;;5111765;27;1135;-79
2022/07/01 06:02:01;;;;;;;;;;;;;;;;;;5109896;27;1270;-80
2022/07/01 06:04:26;;;;;;;;;;;;;;;;;;5136884;27;1150;-79
2022/07/01 06:06:52;;;;;;;;;;;;;;;;;;5101849;27;1293;-79
2022/07/01 06:09:17;;;;;;;;;;;;;;;;;;5092798;27;1171;-79
2022/07/01 06:11:42;;;;;;;;;;;;;;;;;;5110665;27;1894;-80
2022/07/01 06:14:07;;;;;;;;;;;;;;;;;;5115587;27;1159;-79
2022/07/01 06:16:34;;;;;;;;;;;;;;;;;;5143939;27;1226;-79
2022/07/01 06:18:59;;;;;;;;;;;;;;;;;;5111524;27;1131;-80
2022/07/01 06:21:24;;;;;;;;;;;;;;;;;;5095924;27;1171;-80
2022/07/01 06:23:50;;;;;;;;;;;;;;;;;;5128077;27;1139;-79
2022/07/01 06:26:15;;;;;;;;;;;;;;;;;;5116721;27;1376;-80
2022/07/01 06:28:41;;;;;;;;;;;;;;;;;;5133104;27;1167;-80
2022/07/01 06:31:06;;;;;;;;;;;;;;;;;;5134287;27;1948;-79
2022/07/01 06:33:31;;;;;;;;;;;;;;;;;;5103287;27;1217;-80
2022/07/01 06:35:57;;;;;;;;;;;;;;;;;;5113566;27;1349;-80
2022/07/01 06:38:23;;;;;;;;;;;;;;;;;;5112867;27;1135;-79
2022/07/01 06:41:26;;;;;;;;;;;;;;;;;;5114091;27;1177;-79
2022/07/01 06:43:34;;;;;;;;;;;;;;;;;;5117133;27;1108;-79
2022/07/01 06:45:59;;;;;;;;;;;;;;;;;;5125800;27;1311;-80
2022/07/01 06:48:25;;;;;;;;;;;;;;;;;;5150159;27;1182;-80
2022/07/01 06:50:50;;;;;;;;;;;;;;;;;;5115154;27;1984;-79
2022/07/01 06:53:15;;;;;;;;;;;;;;;;;;5130849;27;1222;-79
2022/07/01 06:55:44;;;;;;;;;;;;;;;;;;5132805;27;1230;-79
2022/07/01 06:58:09;;;;;;;;;;;;;;;;;;5132267;27;1213;-79
2022/07/01 07:00:35;;;;;;;;;;;;;;;;;;5150935;27;1213;-79
2022/07/01 07:03:01;;;;;;;;;;;;;;;;;;5145654;27;1055;-79
2022/07/01 07:05:26;;;;;;;;;;;;;;;;;;5132181;27;1171;-80
2022/07/01 07:07:51;;;;;;;;;;;;;;;;;;5140600;27;1325;-79
2022/07/01 07:10:16;;;;;;;;;;;;;;;;;;5129787;27;1305;-79
2022/07/01 07:12:42;;;;;;;;;;;;;;;;;;5089817;27;1893;-78
2022/07/01 07:15:07;;;;;;;;;;;;;;;;;;5130462;27;1201;-78
2022/07/01 07:17:44;;;;;;;;;;;;;;;;;;5108256;27;1263;-78
2022/07/01 07:20:10;;;;;;;;;;;;;;;;;;5109191;27;1226;-80
2022/07/01 07:22:35;;;;;;;;;;;;;;;;;;5126996;27;1230;-80
2022/07/01 07:25:00;;;;;;;;;;;;;;;;;;5108916;27;1179;-79
2022/07/01 07:27:26;;;;;;;;;;;;;;;;;;5107002;27;1193;-80
2022/07/01 07:29:51;;;;;;;;;;;;;;;;;;5126076;27;1222;-78
2022/07/01 07:32:16;;;;;;;;;;;;;;;;;;5125754;27;1951;-78
2022/07/01 07:34:42;;;;;;;;;;;;;;;;;;5106857;27;1229;-80
2022/07/01 07:37:08;;;;;;;;;;;;;;;;;;5128421;27;1146;-78
2022/07/01 07:39:33;;;;;;;;;;;;;;;;;;5128778;27;1177;-77
2022/07/01 07:41:59;;;;;;;;;;;;;;;;;;5101384;27;1261;-78
2022/07/01 07:44:24;;;;;;;;;;;;;;;;;;5108895;27;1400;-78
2022/07/01 07:46:49;;;;;;;;;;;;;;;;;;5086237;27;1176;-80
2022/07/01 07:49:14;;;;;;;;;;;;;;;;;;5106769;27;1119;-76
2022/07/01 07:51:50;;;;;;;;;;;;;;;;;;5120883;27;1910;-78
2022/07/01 07:54:15;;;;;;;;;;;;;;;;;;5125803;27;1239;-79
2022/07/01 07:56:50;;;;;;;;;;;;;;;;;;5125841;27;1262;-75
2022/07/01 07:59:15;;;;;;;;;;;;;;;;;;5106013;28;1189;-75
2022/07/01 08:01:41;;;;;;;;;;;;;;;;;;5085506;28;1348;-78
2022/07/01 08:04:06;;;;;;;;;;;;;;;;;;5082852;28;1267;-76
2022/07/01 08:06:31;;;;;;;;;;;;;;;;;;5086303;28;1305;-75
2022/07/01 08:08:56;;;;;;;;;;;;;;;;;;5102998;28;1234;-76
2022/07/01 08:11:22;;;;;;;;;;;;;;;;;;5105299;28;1993;-76
2022/07/01 08:13:48;;;;;;;;;;;;;;;;;;5086979;28;1196;-77
2022/07/01 08:16:13;;;;;;;;;;;;;;;;;;5110843;28;1104;-77
2022/07/01 08:18:38;;;;;;;;;;;;;;;;;;5088462;28;1179;-77
2022/07/01 08:21:04;;;;;;;;;;;;;;;;;;5105567;28;1260;-77
2022/07/01 08:23:29;;;;;;;;;;;;;;;;;;5116901;28;1198;-77
2022/07/01 08:25:54;;;;;;;;;;;;;;;;;;5127403;27;1214;-77
2022/07/01 08:28:19;;;;;;;;;;;;;;;;;;5092880;28;1344;-77
2022/07/01 08:30:48;;;;;;;;;;;;;;;;;;5105385;28;1169;-78
2022/07/01 08:33:13;;;;;;;;;;;;;;;;;;5114660;27;1933;-77
2022/07/01 08:35:39;;;;;;;;;;;;;;;;;;5109880;27;1206;-77
2022/07/01 08:38:04;;;;;;;;;;;;;;;;;;5123294;27;1240;-78
2022/07/01 08:40:30;;;;;;;;;;;;;;;;;;5118428;27;1209;-79
2022/07/01 08:43:00;;;;;;;;;;;;;;;;;;5120222;27;1175;-80
2022/07/01 08:45:26;;;;;;;;;;;;;;;;;;5122210;27;1382;-79
2022/07/01 08:47:52;;;;;;;;;;;;;;;;;;5093998;27;1384;-79
2022/07/01 08:50:18;;;;;;;;;;;;;;;;;;5122468;27;1446;-79
2022/07/01 08:52:43;;;;;;;;;;;;;;;;;;5130135;27;1941;-79
2022/07/01 08:55:09;;;;;;;;;;;;;;;;;;5113639;27;1179;-79
2022/07/01 08:57:34;;;;;;;;;;;;;;;;;;5110260;27;1264;-78
2022/07/01 09:00:07;;;;;;;;;;;;;;;;;;5094412;27;1235;-86
2022/07/01 09:02:51;;;;;;;;;;;;;;;;;;5110505;27;1301;-79
2022/07/01 09:05:17;;;;;;;;;;;;;;;;;;5111387;27;1104;-80
2022/07/01 09:07:43;;;;;;;;;;;;;;;;;;5091086;27;1425;-79
2022/07/01 09:10:13;;;;;;;;;;;;;;;;;;5110598;27;1024;-80
2022/07/01 09:12:41;;;;;;;;;;;;;;;;;;5110411;27;1945;-79
2022/07/01 09:15:29;;;;;;;;;;;;;;;;;;5090489;27;1199;-79
2022/07/01 09:18:03;;;;;;;;;;;;;;;;;;5104427;27;1215;-85
2022/07/01 09:20:33;;;;;;;;;;;;;;;;;;5109256;27;1226;-80
2022/07/01 09:22:59;;;;;;;;;;;;;;;;;;5114346;27;1214;-80
2022/07/01 09:25:31;;;;;;;;;;;;;;;;;;5112225;27;1278;-79
2022/07/01 09:28:07;;;;;;;;;;;;;;;;;;5144407;27;1206;-78
2022/07/01 09:30:33;;;;;;;;;;;;;;;;;;5124443;27;1198;-79
2022/07/01 09:33:17;;;;;;;;;;;;;;;;;;5104431;27;1886;-79
2022/07/01 09:35:44;;;;;;;;;;;;;;;;;;5110568;27;1349;-78
2022/07/01 09:38:13;;;;;;;;;;;;;;;;;;5105005;27;1206;-78
2022/07/01 09:40:49;;;;;;;;;;;;;;;;;;5109623;27;1198;-78
2022/07/01 09:43:18;;;;;;;;;;;;;;;;;;5106926;27;1277;-78
2022/07/01 09:45:49;;;;;;;;;;;;;;;;;;5118565;27;1341;-78
2022/07/01 09:48:14;;;;;;;;;;;;;;;;;;5123831;27;1205;-78
2022/07/01 09:50:40;;;;;;;;;;;;;;;;;;5148637;27;1272;-75
2022/07/01 09:53:06;;;;;;;;;;;;;;;;;;5111156;27;2008;-76
2022/07/01 09:55:33;;;;;;;;;;;;;;;;;;5113175;27;1197;-72
2022/07/01 09:57:58;;;;;;;;;;;;;;;;;;5129128;27;1213;-75
2022/07/01 10:00:25;;;;;;;;;;;;;;;;;;5131069;27;1165;-75
2022/07/01 10:02:50;;;;;;;;;;;;;;;;;;5123982;27;1221;-76
2022/07/01 10:05:19;;;;;;;;;;;;;;;;;;5123553;27;1145;-76
2022/07/01 10:07:44;;;;;;;;;;;;;;;;;;5127376;27;1261;-76
2022/07/01 10:10:36;;;;;;;;;;;;;;;;;;5130104;27;1337;-77
2022/07/01 10:13:02;;;;;;;;;;;;;;;;;;5118201;27;1905;-77
2022/07/01 10:15:28;;;;;;;;;;;;;;;;;;5128740;27;1036;-75
2022/07/01 10:17:53;;;;;;;;;;;;;;;;;;5104498;27;1204;-76
2022/07/01 10:20:22;;;;;;;;;;;;;;;;;;5093142;27;1317;-76
2022/07/01 10:22:48;;;;;;;;;;;;;;;;;;5111706;27;1289;-76
2022/07/01 10:25:32;;;;;;;;;;;;;;;;;;5129501;27;1209;-76
2022/07/01 10:28:16;;;;;;;;;;;;;;;;;;5147042;27;1103;-75
2022/07/01 10:30:48;;;;;;;;;;;;;;;;;;5131253;27;1324;-75
2022/07/01 10:33:26;;;;;;;;;;;;;;;;;;5106764;27;1959;-76
2022/07/01 10:35:51;;;;;;;;;;;;;;;;;;5131373;27;1189;-80
2022/07/01 10:38:17;;;;;;;;;;;;;;;;;;5125267;27;1132;-75
2022/07/01 10:40:48;;;;;;;;;;;;;;;;;;5091712;27;1301;-76
2022/07/01 10:43:31;;;;;;;;;;;;;;;;;;5106051;27;1278;-77
2022/07/01 10:45:56;;;;;;;;;;;;;;;;;;5109969;27;1198;-80
2022/07/01 10:48:22;;;;;;;;;;;;;;;;;;5102857;27;1055;-76
2022/07/01 10:50:48;;;;;;;;;;;;;;;;;;5108345;27;1207;-77
2022/07/01 10:53:13;;;;;;;;;;;;;;;;;;5084844;27;1979;-80
2022/07/01 10:55:40;;;;;;;;;;;;;;;;;;5109591;27;1230;-79
2022/07/01 10:58:06;;;;;;;;;;;;;;;;;;5108528;27;1284;-78
2022/07/01 11:00:32;;;;;;;;;;;;;;;;;;5092274;27;1230;-78
2022/07/01 11:03:11;;;;;;;;;;;;;;;;;;5122996;27;1132;-77
2022/07/01 11:05:37;;;;;;;;;;;;;;;;;;5145033;27;1227;-77
2022/07/01 11:08:07;;;;;;;;;;;;;;;;;;5126182;27;1447;-77
2022/07/01 11:10:32;;;;;;;;;;;;;;;;;;5113738;27;1246;-77
2022/07/01 11:12:59;;;;;;;;;;;;;;;;;;5129534;27;1951;-77
2022/07/01 11:15:24;;;;;;;;;;;;;;;;;;5128903;27;1171;-77
2022/07/01 11:17:49;;;;;;;;;;;;;;;;;;5143973;27;1108;-77
2022/07/01 11:20:15;;;;;;;;;;;;;;;;;;5128752;27;1371;-78
2022/07/01 11:22:41;;;;;;;;;;;;;;;;;;5127390;27;1237;-78
2022/07/01 11:25:10;;;;;;;;;;;;;;;;;;5129497;27;1284;-78
2022/07/01 11:27:37;;;;;;;;;;;;;;;;;;5128955;27;1284;-78
2022/07/01 11:30:08;;;;;;;;;;;;;;;;;;5149043;27;1206;-79
2022/07/01 11:32:37;;;;;;;;;;;;;;;;;;5126373;27;1893;-78
2022/07/01 11:39:21;;;;;;;;;;;;;;;;;;5130500;27;1167;-78
2022/07/01 11:40:47;;;;;;;;;;;;;;;;;;5126737;27;1051;-78
2022/07/01 11:43:23;;;;;;;;;;;;;;;;;;5107259;27;1135;-79
2022/07/01 11:45:48;;;;;;;;;;;;;;;;;;5109801;27;1424;-78
2022/07/01 11:48:27;;;;;;;;;;;;;;;;;;5103912;27;1183;-78
2022/07/01 11:50:52;;;;;;;;;;;;;;;;;;5129266;27;1206;-78
2022/07/01 11:53:18;;;;;;;;;;;;;;;;;;5088216;27;1977;-78
2022/07/01 11:55:47;;;;;;;;;;;;;;;;;;5100162;27;1187;-78
2022/07/01 11:58:13;;;;;;;;;;;;;;;;;;5145216;27;994;-76
2022/07/01 12:00:38;;;;;;;;;;;;;;;;;;5113572;27;1158;-81
2022/07/01 12:03:03;;;;;;;;;;;;;;;;;;5096490;27;1309;-80
2022/07/01 12:05:29;;;;;;;;;;;;;;;;;;5108112;27;1120;-80
2022/07/01 12:07:54;;;;;;;;;;;;;;;;;;5086167;27;1227;-79
2022/07/01 12:10:26;;;;;;;;;;;;;;;;;;5091012;27;1197;-79
2022/07/01 12:12:51;;;;;;;;;;;;;;;;;;5088428;27;1969;-79
2022/07/01 12:15:16;;;;;;;;;;;;;;;;;;5091536;27;1159;-80
2022/07/01 12:17:42;;;;;;;;;;;;;;;;;;5122365;27;1171;-81
2022/07/01 12:20:11;;;;;;;;;;;;;;;;;;5109987;27;1151;-80
2022/07/01 12:22:36;;;;;;;;;;;;;;;;;;5103921;27;1333;-80
2022/07/01 12:25:13;;;;;;;;;;;;;;;;;;5111830;27;1170;-82
2022/07/01 12:27:39;;;;;;;;;;;;;;;;;;5129147;27;1426;-78
2022/07/01 12:30:05;;;;;;;;;;;;;;;;;;5114689;27;1193;-80
2022/07/01 12:32:34;;;;;;;;;;;;;;;;;;5121502;27;1940;-80
2022/07/01 12:35:00;;;;;;;;;;;;;;;;;;5128838;27;1226;-79
2022/07/01 12:37:26;;;;;;;;;;;;;;;;;;5143914;27;1107;-79
2022/07/01 12:39:52;;;;;;;;;;;;;;;;;;5147387;27;1198;-79
2022/07/01 12:42:29;;;;;;;;;;;;;;;;;;5111800;27;1144;-80
2022/07/01 12:44:58;;;;;;;;;;;;;;;;;;5147868;27;1260;-77
2022/07/01 12:47:38;;;;;;;;;;;;;;;;;;5114529;27;1324;-76
2022/07/01 12:50:10;;;;;;;;;;;;;;;;;;5126759;27;1112;-76
2022/07/01 12:52:37;;;;;;;;;;;;;;;;;;5113474;27;1918;-77
2022/07/01 12:55:20;;;;;;;;;;;;;;;;;;5110217;27;1325;-78
2022/07/01 12:57:49;;;;;;;;;;;;;;;;;;5107838;27;1222;-81
2022/07/01 13:00:15;;;;;;;;;;;;;;;;;;5108894;27;1392;-80
2022/07/01 13:02:41;;;;;;;;;;;;;;;;;;5118770;27;1322;-80
2022/07/01 13:05:06;;;;;;;;;;;;;;;;;;5091794;27;1218;-80
2022/07/01 13:07:31;;;;;;;;;;;;;;;;;;5103342;27;1175;-80
2022/07/01 13:09:57;;;;;;;;;;;;;;;;;;5109781;27;1148;-82
2022/07/01 13:12:22;;;;;;;;;;;;;;;;;;5088818;27;1894;-82
2022/07/01 13:14:47;;;;;;;;;;;;;;;;;;5123182;27;1184;-83
2022/07/01 13:17:14;;;;;;;;;;;;;;;;;;5109671;27;1199;-82
2022/07/01 13:19:39;;;;;;;;;;;;;;;;;;5124376;27;1147;-82
2022/07/01 13:22:05;;;;;;;;;;;;;;;;;;5111789;27;1246;-83
2022/07/01 13:24:30;;;;;;;;;;;;;;;;;;5112915;27;1155;-84
2022/07/01 13:26:55;;;;;;;;;;;;;;;;;;5094516;27;1156;-81
2022/07/01 13:29:21;;;;;;;;;;;;;;;;;;5093744;27;1286;-82
2022/07/01 13:31:46;;;;;;;;;;;;;;;;;;5094687;27;1885;-83
2022/07/01 13:34:12;;;;;;;;;;;;;;;;;;5131683;27;1143;-82
2022/07/01 13:36:48;;;;;;;;;;;;;;;;;;5132167;27;1304;-83
2022/07/01 13:39:13;;;;;;;;;;;;;;;;;;5099791;27;1146;-83
2022/07/01 13:41:39;;;;;;;;;;;;;;;;;;5111898;27;1190;-84
2022/07/01 13:44:04;;;;;;;;;;;;;;;;;;5091265;27;1388;-83
2022/07/01 13:46:32;;;;;;;;;;;;;;;;;;5092602;27;1160;-83
2022/07/01 13:48:57;;;;;;;;;;;;;;;;;;5110735;27;1222;-83
2022/07/01 13:51:23;;;;;;;;;;;;;;;;;;5089242;28;1981;-84
2022/07/01 13:53:48;;;;;;;;;;;;;;;;;;5107842;28;1146;-82
2022/07/01 13:56:13;;;;;;;;;;;;;;;;;;5109323;27;1237;-76
2022/07/01 13:58:38;;;;;;;;;;;;;;;;;;5105643;27;1246;-76
2022/07/01 14:01:04;;;;;;;;;;;;;;;;;;5111836;27;1226;-76
2022/07/01 14:03:29;;;;;;;;;;;;;;;;;;5120970;27;1161;-75
2022/07/01 14:05:54;;;;;;;;;;;;;;;;;;5111916;27;1146;-82
2022/07/01 14:08:20;;;;;;;;;;;;;;;;;;5105950;28;1218;-79
2022/07/01 14:10:45;;;;;;;;;;;;;;;;;;5089318;28;1514;-81
2022/07/01 14:13:11;;;;;;;;;;;;;;;;;;5119590;27;1901;-81
2022/07/01 14:15:37;;;;;;;;;;;;;;;;;;5128730;27;1260;-81
2022/07/01 14:18:02;;;;;;;;;;;;;;;;;;5109988;27;1264;-82
2022/07/01 14:20:28;;;;;;;;;;;;;;;;;;5112894;27;1197;-82
2022/07/01 14:22:53;;;;;;;;;;;;;;;;;;5123311;27;1186;-80
2022/07/01 14:25:22;;;;;;;;;;;;;;;;;;5109804;28;1156;-81
2022/07/01 14:27:48;;;;;;;;;;;;;;;;;;5109497;28;1227;-81
2022/07/01 14:30:14;;;;;;;;;;;;;;;;;;5109451;28;1306;-80
2022/07/01 14:32:39;;;;;;;;;;;;;;;;;;5123347;27;1952;-82
2022/07/01 14:35:05;;;;;;;;;;;;;;;;;;5108264;28;1391;-82
2022/07/01 14:37:30;;;;;;;;;;;;;;;;;;5125186;27;1416;-82
2022/07/01 14:39:56;;;;;;;;;;;;;;;;;;5130985;27;1206;-81
2022/07/01 14:42:25;;;;;;;;;;;;;;;;;;5129043;27;1157;-84
2022/07/01 14:44:52;;;;;;;;;;;;;;;;;;5131338;27;1210;-82
2022/07/01 14:47:17;;;;;;;;;;;;;;;;;;5128541;27;1303;-81
2022/07/01 14:49:44;;;;;;;;;;;;;;;;;;5126375;27;1076;-81
2022/07/01 14:52:10;;;;;;;;;;;;;;;;;;5108281;27;1901;-82
2022/07/01 14:54:35;;;;;;;;;;;;;;;;;;5109996;28;1147;-82
2022/07/01 14:57:00;;;;;;;;;;;;;;;;;;5091622;28;1384;-80
2022/07/01 14:59:25;;;;;;;;;;;;;;;;;;5110183;28;1214;-81
2022/07/01 15:01:51;;;;;;;;;;;;;;;;;;5109668;28;1207;-80
2022/07/01 15:04:17;;;;;;;;;;;;;;;;;;5116821;27;1210;-80
2022/07/01 15:06:44;;;;;;;;;;;;;;;;;;5110148;27;1303;-82
2022/07/01 15:09:11;;;;;;;;;;;;;;;;;;5111021;27;1261;-81
2022/07/01 15:11:36;;;;;;;;;;;;;;;;;;5109967;27;1885;-81
2022/07/01 15:14:02;;;;;;;;;;;;;;;;;;5111600;27;1277;-82
2022/07/01 15:16:32;;;;;;;;;;;;;;;;;;5110103;27;1276;-81
2022/07/01 15:18:58;;;;;;;;;;;;;;;;;;5105074;28;1187;-81
2022/07/01 15:21:29;;;;;;;;;;;;;;;;;;5107490;28;1181;-81
2022/07/01 15:23:55;;;;;;;;;;;;;;;;;;5105785;28;1271;-82
2022/07/01 15:26:21;;;;;;;;;;;;;;;;;;5108281;28;1128;-80
2022/07/01 15:28:46;;;;;;;;;;;;;;;;;;5087036;28;1182;-80
2022/07/01 15:31:12;;;;;;;;;;;;;;;;;;5108430;28;1987;-80
2022/07/01 15:33:37;;;;;;;;;;;;;;;;;;5119853;27;1150;-80
2022/07/01 15:36:03;;;;;;;;;;;;;;;;;;5127772;27;1274;-82
2022/07/01 15:38:29;;;;;;;;;;;;;;;;;;5123920;27;1170;-81
2022/07/01 15:40:54;;;;;;;;;;;;;;;;;;5111447;27;1269;-84
2022/07/01 15:43:20;;;;;;;;;;;;;;;;;;5109013;27;1304;-82
2022/07/01 15:45:45;;;;;;;;;;;;;;;;;;5118748;27;1186;-83
2022/07/01 15:48:11;;;;;;;;;;;;;;;;;;5082548;28;1312;-76
2022/07/01 15:50:40;;;;;;;;;;;;;;;;;;5106720;27;1156;-76
2022/07/01 15:53:06;;;;;;;;;;;;;;;;;;5106332;27;1959;-76
2022/07/01 15:55:31;;;;;;;;;;;;;;;;;;5107757;27;1302;-78
2022/07/01 15:57:57;;;;;;;;;;;;;;;;;;5107248;27;1261;-77
2022/07/01 16:00:23;;;;;;;;;;;;;;;;;;5108663;27;1214;-77
2022/07/01 16:02:48;;;;;;;;;;;;;;;;;;5105919;27;1159;-78
2022/07/01 16:05:13;;;;;;;;;;;;;;;;;;5114398;27;1293;-77
2022/07/01 16:07:39;;;;;;;;;;;;;;;;;;5109479;27;1178;-76
2022/07/01 16:10:06;;;;;;;;;;;;;;;;;;5129341;27;1339;-78
2022/07/01 16:12:32;;;;;;;;;;;;;;;;;;5128440;27;1898;-78
2022/07/01 16:14:59;;;;;;;;;;;;;;;;;;5111715;27;1145;-78
2022/07/01 16:17:26;;;;;;;;;;;;;;;;;;5146476;27;1186;-77
2022/07/01 16:19:55;;;;;;;;;;;;;;;;;;5123666;27;1169;-77
2022/07/01 16:22:23;;;;;;;;;;;;;;;;;;5110643;27;1254;-77
2022/07/01 16:24:48;;;;;;;;;;;;;;;;;;5135355;27;1119;-76
2022/07/01 16:27:14;;;;;;;;;;;;;;;;;;5123747;27;1171;-76
2022/07/01 16:29:41;;;;;;;;;;;;;;;;;;5128122;27;1328;-76
2022/07/01 16:32:07;;;;;;;;;;;;;;;;;;5146173;27;1866;-76
2022/07/01 16:34:35;;;;;;;;;;;;;;;;;;5145645;27;1138;-76
2022/07/01 16:37:02;;;;;;;;;;;;;;;;;;5126608;27;1287;-75
2022/07/01 16:39:29;;;;;;;;;;;;;;;;;;5146657;27;1105;-76
2022/07/01 16:41:54;;;;;;;;;;;;;;;;;;5124071;27;1218;-79
2022/07/01 16:44:38;;;;;;;;;;;;;;;;;;5111522;27;1246;-79
2022/07/01 16:47:05;;;;;;;;;;;;;;;;;;5125950;27;1313;-77
2022/07/01 16:49:31;;;;;;;;;;;;;;;;;;5122767;27;1178;-75
2022/07/01 16:51:57;;;;;;;;;;;;;;;;;;5141933;27;1973;-75
2022/07/01 16:54:28;;;;;;;;;;;;;;;;;;5142940;27;1218;-78
2022/07/01 16:56:55;;;;;;;;;;;;;;;;;;5129721;27;1206;-77
2022/07/01 16:59:21;;;;;;;;;;;;;;;;;;5131922;27;1264;-78
2022/07/01 17:01:47;;;;;;;;;;;;;;;;;;5126857;27;1218;-78
2022/07/01 17:04:13;;;;;;;;;;;;;;;;;;5110000;27;1270;-78
2022/07/01 17:06:50;;;;;;;;;;;;;;;;;;5149695;27;1221;-78
2022/07/01 17:09:16;;;;;;;;;;;;;;;;;;5113943;27;1237;-79
2022/07/01 17:11:42;;;;;;;;;;;;;;;;;;5130418;27;1893;-79
2022/07/01 17:14:08;;;;;;;;;;;;;;;;;;5150455;27;1213;-77
2022/07/01 17:16:34;;;;;;;;;;;;;;;;;;5149194;27;1233;-78